sensor_id;sensor_type;location;lat;lon;timestamp;pressure;altitude;pressure_sealevel;temperature;humidity
71735;BME280;59577;52.122;5.406;2022-08-19T00:01:26;101472.69;;;17.80;79.72
71735;BME280;59577;52.122;5.406;2022-08-19T00:04:06;101473.09;;;17.79;79.89
71735;BME280;59577;52.122;5.406;2022-08-19T00:06:34;101470.34;;;17.75;79.49
71735;BME280;59577;52.122;5.406;2022-08-19T00:09:04;101476.56;;;17.65;79.76
71735;BME280;59577;52.122;5.406;2022-08-19T00:11:31;101474.19;;;17.60;79.95
71735;BME280;59577;52.122;5.406;2022-08-19T00:13:58;101481.59;;;17.59;80.09
71735;BME280;59577;52.122;5.406;2022-08-19T00:16:25;101482.78;;;17.58;79.82
71735;BME280;59577;52.122;5.406;2022-08-19T00:18:53;101484.34;;;17.56;79.74
71735;BME280;59577;52.122;5.406;2022-08-19T00:21:23;101477.66;;;17.50;79.95
71735;BME280;59577;52.122;5.406;2022-08-19T00:23:50;101477.22;;;17.44;79.95
71735;BME280;59577;52.122;5.406;2022-08-19T00:26:16;101480.78;;;17.44;80.05
71735;BME280;59577;52.122;5.406;2022-08-19T00:28:43;101476.09;;;17.48;80.12
71735;BME280;59577;52.122;5.406;2022-08-19T00:31:10;101476.50;;;17.51;79.59
71735;BME280;59577;52.122;5.406;2022-08-19T00:33:36;101476.88;;;17.49;79.45
71735;BME280;59577;52.122;5.406;2022-08-19T00:36:05;101475.69;;;17.46;79.39
71735;BME280;59577;52.122;5.406;2022-08-19T00:38:33;101478.03;;;17.41;79.66
71735;BME280;59577;52.122;5.406;2022-08-19T00:41:04;101475.22;;;17.34;79.79
71735;BME280;59577;52.122;5.406;2022-08-19T00:43:32;101481.84;;;17.29;80.26
71735;BME280;59577;52.122;5.406;2022-08-19T00:45:59;101474.44;;;17.29;80.48
71735;BME280;59577;52.122;5.406;2022-08-19T00:48:25;101470.91;;;17.29;80.52
71735;BME280;59577;52.122;5.406;2022-08-19T00:50:53;101472.81;;;17.25;80.14
71735;BME280;59577;52.122;5.406;2022-08-19T00:53:23;101476.75;;;17.24;80.25
71735;BME280;59577;52.122;5.406;2022-08-19T00:55:53;101475.91;;;17.16;80.47
71735;BME280;59577;52.122;5.406;2022-08-19T00:58:23;101467.28;;;17.14;80.53
71735;BME280;59577;52.122;5.406;2022-08-19T01:00:50;101473.97;;;17.17;80.43
71735;BME280;59577;52.122;5.406;2022-08-19T01:03:19;101470.03;;;17.14;79.84
71735;BME280;59577;52.122;5.406;2022-08-19T01:05:47;101467.28;;;17.14;80.08
71735;BME280;59577;52.122;5.406;2022-08-19T01:08:16;101481.72;;;17.07;80.12
71735;BME280;59577;52.122;5.406;2022-08-19T01:10:47;101477.41;;;17.03;80.38
71735;BME280;59577;52.122;5.406;2022-08-19T01:13:20;101481.28;;;17.02;80.33
71735;BME280;59577;52.122;5.406;2022-08-19T01:15:51;101482.50;;;17.04;80.15
71735;BME280;59577;52.122;5.406;2022-08-19T01:18:20;101476.16;;;16.97;80.25
71735;BME280;59577;52.122;5.406;2022-08-19T01:20:47;101469.09;;;16.92;80.41
71735;BME280;59577;52.122;5.406;2022-08-19T01:23:15;101469.44;;;16.87;80.63
71735;BME280;59577;52.122;5.406;2022-08-19T01:25:46;101472.19;;;16.87;80.82
71735;BME280;59577;52.122;5.406;2022-08-19T01:28:17;101471.34;;;16.83;80.94
71735;BME280;59577;52.122;5.406;2022-08-19T01:30:58;101474.47;;;16.81;80.77
71735;BME280;59577;52.122;5.406;2022-08-19T01:33:25;101475.22;;;16.78;80.79
71735;BME280;59577;52.122;5.406;2022-08-19T01:35:52;101474.41;;;16.74;80.83
71735;BME280;59577;52.122;5.406;2022-08-19T01:38:22;101479.84;;;16.70;80.91
71735;BME280;59577;52.122;5.406;2022-08-19T01:40:50;101484.84;;;16.61;81.28
71735;BME280;59577;52.122;5.406;2022-08-19T01:43:17;101486.03;;;16.64;81.13
71735;BME280;59577;52.122;5.406;2022-08-19T01:45:46;101477.88;;;16.67;80.97
71735;BME280;59577;52.122;5.406;2022-08-19T01:48:13;101482.19;;;16.68;80.97
71735;BME280;59577;52.122;5.406;2022-08-19T01:50:40;101476.31;;;16.66;80.58
71735;BME280;59577;52.122;5.406;2022-08-19T01:53:10;101459.47;;;16.64;80.44
71735;BME280;59577;52.122;5.406;2022-08-19T01:55:40;101478.25;;;16.66;80.67
71735;BME280;59577;52.122;5.406;2022-08-19T01:58:11;101484.09;;;16.68;80.78
71735;BME280;59577;52.122;5.406;2022-08-19T02:00:38;101486.06;;;16.67;80.55
71735;BME280;59577;52.122;5.406;2022-08-19T02:03:05;101478.22;;;16.62;80.62
71735;BME280;59577;52.122;5.406;2022-08-19T02:05:32;101479.72;;;16.56;80.66
71735;BME280;59577;52.122;5.406;2022-08-19T02:07:59;101479.69;;;16.52;80.70
71735;BME280;59577;52.122;5.406;2022-08-19T02:10:25;101469.50;;;16.49;80.78
71735;BME280;59577;52.122;5.406;2022-08-19T02:12:52;101480.41;;;16.46;81.04
71735;BME280;59577;52.122;5.406;2022-08-19T02:15:20;101485.88;;;16.46;81.16
71735;BME280;59577;52.122;5.406;2022-08-19T02:17:47;101483.16;;;16.46;80.88
71735;BME280;59577;52.122;5.406;2022-08-19T02:20:15;101486.25;;;16.44;80.81
71735;BME280;59577;52.122;5.406;2022-08-19T02:22:41;101480.41;;;16.46;80.96
71735;BME280;59577;52.122;5.406;2022-08-19T02:25:13;101476.88;;;16.45;80.90
71735;BME280;59577;52.122;5.406;2022-08-19T02:27:40;101485.84;;;16.42;80.56
71735;BME280;59577;52.122;5.406;2022-08-19T02:30:09;101486.97;;;16.38;80.65
71735;BME280;59577;52.122;5.406;2022-08-19T02:32:39;101489.22;;;16.28;81.00
71735;BME280;59577;52.122;5.406;2022-08-19T02:35:11;101488.78;;;16.26;80.99
71735;BME280;59577;52.122;5.406;2022-08-19T02:37:38;101493.13;;;16.31;80.92
71735;BME280;59577;52.122;5.406;2022-08-19T02:40:23;101498.22;;;16.32;81.10
71735;BME280;59577;52.122;5.406;2022-08-19T02:42:50;101501.75;;;16.33;80.97
71735;BME280;59577;52.122;5.406;2022-08-19T02:45:17;101498.59;;;16.31;80.90
71735;BME280;59577;52.122;5.406;2022-08-19T02:47:43;101505.19;;;16.26;80.69
71735;BME280;59577;52.122;5.406;2022-08-19T02:50:10;101503.94;;;16.16;80.97
71735;BME280;59577;52.122;5.406;2022-08-19T02:52:36;101500.31;;;16.09;81.50
71735;BME280;59577;52.122;5.406;2022-08-19T02:55:04;101503.88;;;16.13;81.56
71735;BME280;59577;52.122;5.406;2022-08-19T02:57:31;101497.66;;;16.16;81.55
71735;BME280;59577;52.122;5.406;2022-08-19T02:59:58;101502.75;;;16.17;81.11
71735;BME280;59577;52.122;5.406;2022-08-19T03:02:25;101502.72;;;16.14;81.29
71735;BME280;59577;52.122;5.406;2022-08-19T03:04:51;101502.22;;;16.05;81.28
71735;BME280;59577;52.122;5.406;2022-08-19T03:07:18;101503.72;;;15.98;81.70
71735;BME280;59577;52.122;5.406;2022-08-19T03:09:45;101508.34;;;15.94;81.47
71735;BME280;59577;52.122;5.406;2022-08-19T03:12:12;101497.03;;;15.92;81.54
71735;BME280;59577;52.122;5.406;2022-08-19T03:14:39;101486.06;;;15.89;81.93
71735;BME280;59577;52.122;5.406;2022-08-19T03:17:06;101488.41;;;15.90;82.38
71735;BME280;59577;52.122;5.406;2022-08-19T03:19:32;101480.22;;;15.90;82.40
71735;BME280;59577;52.122;5.406;2022-08-19T03:21:59;101482.22;;;15.97;82.11
71735;BME280;59577;52.122;5.406;2022-08-19T03:24:26;101492.03;;;16.02;82.10
71735;BME280;59577;52.122;5.406;2022-08-19T03:26:54;101483.84;;;16.02;81.39
71735;BME280;59577;52.122;5.406;2022-08-19T03:29:26;101484.19;;;15.96;81.23
71735;BME280;59577;52.122;5.406;2022-08-19T03:32:01;101487.13;;;15.81;81.44
71735;BME280;59577;52.122;5.406;2022-08-19T03:34:31;101481.28;;;15.82;81.45
71735;BME280;59577;52.122;5.406;2022-08-19T03:37:03;101484.44;;;15.84;81.52
71735;BME280;59577;52.122;5.406;2022-08-19T03:39:30;101482.84;;;15.83;81.53
71735;BME280;59577;52.122;5.406;2022-08-19T03:41:57;101478.56;;;15.82;81.65
71735;BME280;59577;52.122;5.406;2022-08-19T03:44:47;101487.50;;;15.79;81.80
71735;BME280;59577;52.122;5.406;2022-08-19T03:47:14;101492.94;;;15.79;82.01
71735;BME280;59577;52.122;5.406;2022-08-19T03:49:42;101488.22;;;15.76;81.69
71735;BME280;59577;52.122;5.406;2022-08-19T03:52:09;101488.97;;;15.73;81.85
71735;BME280;59577;52.122;5.406;2022-08-19T03:54:36;101486.59;;;15.71;81.59
71735;BME280;59577;52.122;5.406;2022-08-19T03:57:05;101485.44;;;15.72;81.30
71735;BME280;59577;52.122;5.406;2022-08-19T03:59:34;101479.94;;;15.69;81.58
71735;BME280;59577;52.122;5.406;2022-08-19T04:02:07;101483.31;;;15.58;81.84
71735;BME280;59577;52.122;5.406;2022-08-19T04:04:36;101485.63;;;15.56;82.14
71735;BME280;59577;52.122;5.406;2022-08-19T04:07:03;101489.13;;;15.57;81.85
71735;BME280;59577;52.122;5.406;2022-08-19T04:09:31;101482.88;;;15.56;82.13
71735;BME280;59577;52.122;5.406;2022-08-19T04:11:58;101478.25;;;15.60;81.84
71735;BME280;59577;52.122;5.406;2022-08-19T04:14:27;101466.19;;;15.61;81.55
71735;BME280;59577;52.122;5.406;2022-08-19T04:17:00;101462.31;;;15.63;81.51
71735;BME280;59577;52.122;5.406;2022-08-19T04:19:29;101472.44;;;15.62;81.63
71735;BME280;59577;52.122;5.406;2022-08-19T04:21:56;101471.16;;;15.52;81.69
71735;BME280;59577;52.122;5.406;2022-08-19T04:24:23;101479.97;;;15.42;82.19
71735;BME280;59577;52.122;5.406;2022-08-19T04:26:50;101476.41;;;15.38;82.34
71735;BME280;59577;52.122;5.406;2022-08-19T04:29:20;101476.34;;;15.34;82.80
71735;BME280;59577;52.122;5.406;2022-08-19T04:31:49;101472.94;;;15.41;82.69
71735;BME280;59577;52.122;5.406;2022-08-19T04:34:17;101474.56;;;15.46;82.80
71735;BME280;59577;52.122;5.406;2022-08-19T04:36:44;101477.75;;;15.51;82.75
71735;BME280;59577;52.122;5.406;2022-08-19T04:39:14;101489.09;;;15.53;82.14
71735;BME280;59577;52.122;5.406;2022-08-19T04:41:42;101478.53;;;15.52;82.37
71735;BME280;59577;52.122;5.406;2022-08-19T04:44:27;101474.56;;;15.46;82.44
71735;BME280;59577;52.122;5.406;2022-08-19T04:46:58;101462.44;;;15.43;82.91
71735;BME280;59577;52.122;5.406;2022-08-19T04:49:26;101469.13;;;15.46;83.22
71735;BME280;59577;52.122;5.406;2022-08-19T04:51:54;101469.13;;;15.46;83.08
71735;BME280;59577;52.122;5.406;2022-08-19T04:54:28;101467.44;;;15.37;83.19
71735;BME280;59577;52.122;5.406;2022-08-19T04:57:06;101468.34;;;15.45;83.36
71735;BME280;59577;52.122;5.406;2022-08-19T04:59:34;101469.19;;;15.53;83.48
71735;BME280;59577;52.122;5.406;2022-08-19T05:02:00;101477.84;;;15.58;83.28
71735;BME280;59577;52.122;5.406;2022-08-19T05:04:27;101477.09;;;15.61;83.20
71735;BME280;59577;52.122;5.406;2022-08-19T05:06:59;101475.19;;;15.66;82.96
71735;BME280;59577;52.122;5.406;2022-08-19T05:09:28;101477.56;;;15.67;82.91
71735;BME280;59577;52.122;5.406;2022-08-19T05:12:16;101477.59;;;15.71;82.76
71735;BME280;59577;52.122;5.406;2022-08-19T05:14:43;101498.69;;;15.74;82.14
71735;BME280;59577;52.122;5.406;2022-08-19T05:17:12;101493.69;;;15.76;82.36
71735;BME280;59577;52.122;5.406;2022-08-19T05:19:59;101495.34;;;15.84;82.14
71735;BME280;59577;52.122;5.406;2022-08-19T05:22:46;101487.25;;;15.91;82.11
71735;BME280;59577;52.122;5.406;2022-08-19T05:25:16;101489.56;;;15.89;82.12
71735;BME280;59577;52.122;5.406;2022-08-19T05:27:46;101490.38;;;15.93;82.29
71735;BME280;59577;52.122;5.406;2022-08-19T05:30:13;101495.19;;;16.04;82.05
71735;BME280;59577;52.122;5.406;2022-08-19T05:32:41;101488.66;;;16.12;82.07
71735;BME280;59577;52.122;5.406;2022-08-19T05:35:08;101493.81;;;16.21;81.60
71735;BME280;59577;52.122;5.406;2022-08-19T05:37:36;101487.69;;;16.31;81.64
71735;BME280;59577;52.122;5.406;2022-08-19T05:40:03;101495.34;;;17.00;80.17
71735;BME280;59577;52.122;5.406;2022-08-19T05:42:32;101494.16;;;17.60;78.23
71735;BME280;59577;52.122;5.406;2022-08-19T05:45:06;101493.41;;;17.67;77.70
71735;BME280;59577;52.122;5.406;2022-08-19T05:47:32;101497.22;;;17.48;78.72
71735;BME280;59577;52.122;5.406;2022-08-19T05:49:59;101491.41;;;17.64;78.50
71735;BME280;59577;52.122;5.406;2022-08-19T05:52:30;101495.38;;;17.74;78.21
71735;BME280;59577;52.122;5.406;2022-08-19T05:54:57;101490.66;;;17.71;78.22
71735;BME280;59577;52.122;5.406;2022-08-19T05:57:24;101484.38;;;17.63;78.30
71735;BME280;59577;52.122;5.406;2022-08-19T05:59:51;101488.09;;;18.10;76.99
71735;BME280;59577;52.122;5.406;2022-08-19T06:02:24;101481.81;;;18.06;77.89
71735;BME280;59577;52.122;5.406;2022-08-19T06:04:51;101484.63;;;18.49;77.38
71735;BME280;59577;52.122;5.406;2022-08-19T06:07:17;101498.28;;;19.50;74.45
71735;BME280;59577;52.122;5.406;2022-08-19T06:09:44;101501.44;;;19.52;73.70
71735;BME280;59577;52.122;5.406;2022-08-19T06:12:25;101495.56;;;19.35;74.57
71735;BME280;59577;52.122;5.406;2022-08-19T06:14:55;101497.88;;;19.55;74.18
71735;BME280;59577;52.122;5.406;2022-08-19T06:17:27;101496.75;;;19.42;74.86
71735;BME280;59577;52.122;5.406;2022-08-19T06:19:56;101494.03;;;19.27;75.72
71735;BME280;59577;52.122;5.406;2022-08-19T06:22:23;101494.63;;;19.89;74.99
71735;BME280;59577;52.122;5.406;2022-08-19T06:24:50;101488.91;;;20.84;72.50
71735;BME280;59577;52.122;5.406;2022-08-19T06:27:19;101484.50;;;22.01;69.15
71735;BME280;59577;52.122;5.406;2022-08-19T06:29:46;101491.53;;;22.02;68.78
71735;BME280;59577;52.122;5.406;2022-08-19T06:32:15;101490.53;;;21.89;69.75
71735;BME280;59577;52.122;5.406;2022-08-19T06:34:45;101492.75;;;22.01;69.28
71735;BME280;59577;52.122;5.406;2022-08-19T06:37:12;101501.56;;;22.47;68.42
71735;BME280;59577;52.122;5.406;2022-08-19T06:39:43;101493.88;;;22.34;68.73
71735;BME280;59577;52.122;5.406;2022-08-19T06:42:11;101495.16;;;22.26;68.87
71735;BME280;59577;52.122;5.406;2022-08-19T06:44:45;101489.97;;;21.74;70.57
71735;BME280;59577;52.122;5.406;2022-08-19T06:47:18;101499.63;;;21.17;72.48
71735;BME280;59577;52.122;5.406;2022-08-19T06:49:58;101499.16;;;20.80;74.32
71735;BME280;59577;52.122;5.406;2022-08-19T06:52:34;101496.53;;;20.59;75.05
71735;BME280;59577;52.122;5.406;2022-08-19T06:55:04;101504.19;;;20.37;75.68
71735;BME280;59577;52.122;5.406;2022-08-19T06:57:32;101509.41;;;20.17;76.09
71735;BME280;59577;52.122;5.406;2022-08-19T07:00:00;101506.31;;;20.07;76.42
71735;BME280;59577;52.122;5.406;2022-08-19T07:02:26;101499.28;;;20.03;77.65
71735;BME280;59577;52.122;5.406;2022-08-19T07:04:53;101506.34;;;19.97;78.56
71735;BME280;59577;52.122;5.406;2022-08-19T07:07:20;101515.06;;;19.84;79.27
71735;BME280;59577;52.122;5.406;2022-08-19T07:09:50;101511.16;;;19.71;79.92
71735;BME280;59577;52.122;5.406;2022-08-19T07:12:25;101513.91;;;19.64;79.29
71735;BME280;59577;52.122;5.406;2022-08-19T07:14:52;101511.97;;;19.64;79.37
71735;BME280;59577;52.122;5.406;2022-08-19T07:17:19;101508.81;;;19.69;79.12
71735;BME280;59577;52.122;5.406;2022-08-19T07:19:47;101518.59;;;19.70;79.67
71735;BME280;59577;52.122;5.406;2022-08-19T07:22:14;101523.72;;;19.68;79.80
71735;BME280;59577;52.122;5.406;2022-08-19T07:24:42;101517.81;;;19.73;79.66
71735;BME280;59577;52.122;5.406;2022-08-19T07:27:17;101513.53;;;19.76;80.08
71735;BME280;59577;52.122;5.406;2022-08-19T07:29:50;101509.97;;;19.79;80.00
71735;BME280;59577;52.122;5.406;2022-08-19T07:32:23;101519.38;;;19.89;80.00
71735;BME280;59577;52.122;5.406;2022-08-19T07:34:53;101510.31;;;19.92;79.35
71735;BME280;59577;52.122;5.406;2022-08-19T07:37:21;101518.97;;;19.90;78.99
71735;BME280;59577;52.122;5.406;2022-08-19T07:39:48;101527.19;;;19.94;79.44
71735;BME280;59577;52.122;5.406;2022-08-19T07:42:15;101522.09;;;19.89;79.72
71735;BME280;59577;52.122;5.406;2022-08-19T07:44:41;101514.59;;;19.97;80.25
71735;BME280;59577;52.122;5.406;2022-08-19T07:47:16;101525.19;;;20.02;79.78
71735;BME280;59577;52.122;5.406;2022-08-19T07:50:07;101521.22;;;20.10;80.05
71735;BME280;59577;52.122;5.406;2022-08-19T07:52:34;101526.25;;;20.22;79.32
71735;BME280;59577;52.122;5.406;2022-08-19T07:55:03;101531.72;;;20.29;79.21
71735;BME280;59577;52.122;5.406;2022-08-19T07:57:30;101523.41;;;20.40;78.68
71735;BME280;59577;52.122;5.406;2022-08-19T07:59:57;101531.56;;;20.55;78.33
71735;BME280;59577;52.122;5.406;2022-08-19T08:02:24;101537.25;;;20.85;77.62
71735;BME280;59577;52.122;5.406;2022-08-19T08:04:51;101532.88;;;20.92;77.06
71735;BME280;59577;52.122;5.406;2022-08-19T08:07:35;101535.91;;;21.04;75.98
71735;BME280;59577;52.122;5.406;2022-08-19T08:10:20;101536.94;;;21.21;74.34
71735;BME280;59577;52.122;5.406;2022-08-19T08:12:50;101543.63;;;21.62;73.25
71735;BME280;59577;52.122;5.406;2022-08-19T08:15:37;101546.28;;;22.04;73.11
71735;BME280;59577;52.122;5.406;2022-08-19T08:18:10;101550.91;;;22.10;71.93
71735;BME280;59577;52.122;5.406;2022-08-19T08:20:36;101560.53;;;21.98;71.67
71735;BME280;59577;52.122;5.406;2022-08-19T08:23:03;101553.56;;;21.87;71.81
71735;BME280;59577;52.122;5.406;2022-08-19T08:25:48;101561.66;;;21.70;71.91
71735;BME280;59577;52.122;5.406;2022-08-19T08:28:16;101556.91;;;21.71;72.23
71735;BME280;59577;52.122;5.406;2022-08-19T08:30:45;101567.25;;;21.97;71.72
71735;BME280;59577;52.122;5.406;2022-08-19T08:33:21;101563.63;;;22.62;70.31
71735;BME280;59577;52.122;5.406;2022-08-19T08:36:06;101571.88;;;23.37;67.79
71735;BME280;59577;52.122;5.406;2022-08-19T08:38:34;101574.03;;;23.69;65.87
71735;BME280;59577;52.122;5.406;2022-08-19T08:41:27;101572.94;;;23.87;65.93
71735;BME280;59577;52.122;5.406;2022-08-19T08:43:55;101575.50;;;23.74;64.82
71735;BME280;59577;52.122;5.406;2022-08-19T08:46:46;101563.81;;;23.46;66.23
71735;BME280;59577;52.122;5.406;2022-08-19T08:49:27;101579.81;;;23.35;66.05
71735;BME280;59577;52.122;5.406;2022-08-19T08:52:18;101578.69;;;23.08;66.30
71735;BME280;59577;52.122;5.406;2022-08-19T08:54:49;101577.34;;;23.40;64.89
71735;BME280;59577;52.122;5.406;2022-08-19T08:57:43;101572.63;;;24.21;67.58
71735;BME280;59577;52.122;5.406;2022-08-19T09:00:19;101572.88;;;24.80;62.45
71735;BME280;59577;52.122;5.406;2022-08-19T09:02:47;101572.34;;;24.68;60.95
71735;BME280;59577;52.122;5.406;2022-08-19T09:05:18;101567.88;;;24.38;62.51
71735;BME280;59577;52.122;5.406;2022-08-19T09:08:02;101567.00;;;24.61;61.88
71735;BME280;59577;52.122;5.406;2022-08-19T09:10:38;101572.19;;;24.75;61.27
71735;BME280;59577;52.122;5.406;2022-08-19T09:16:11;101578.22;;;26.07;57.32
71735;BME280;59577;52.122;5.406;2022-08-19T09:18:44;101576.56;;;26.49;58.06
71735;BME280;59577;52.122;5.406;2022-08-19T09:21:14;101575.13;;;26.57;55.69
71735;BME280;59577;52.122;5.406;2022-08-19T09:23:42;101579.56;;;26.16;56.72
71735;BME280;59577;52.122;5.406;2022-08-19T09:26:13;101573.47;;;26.34;57.89
71735;BME280;59577;52.122;5.406;2022-08-19T09:28:43;101574.25;;;26.34;56.93
71735;BME280;59577;52.122;5.406;2022-08-19T09:31:26;101574.25;;;26.47;57.15
71735;BME280;59577;52.122;5.406;2022-08-19T09:33:53;101576.81;;;26.29;56.02
71735;BME280;59577;52.122;5.406;2022-08-19T09:36:27;101580.53;;;26.09;56.74
71735;BME280;59577;52.122;5.406;2022-08-19T09:39:00;101580.31;;;26.03;55.88
71735;BME280;59577;52.122;5.406;2022-08-19T09:41:27;101576.81;;;26.41;57.73
71735;BME280;59577;52.122;5.406;2022-08-19T09:43:56;101574.13;;;26.76;55.87
71735;BME280;59577;52.122;5.406;2022-08-19T09:46:26;101566.69;;;26.86;53.43
71735;BME280;59577;52.122;5.406;2022-08-19T09:48:54;101576.69;;;26.71;56.54
71735;BME280;59577;52.122;5.406;2022-08-19T09:51:23;101567.31;;;27.03;53.50
71735;BME280;59577;52.122;5.406;2022-08-19T09:53:52;101578.84;;;26.67;54.23
71735;BME280;59577;52.122;5.406;2022-08-19T09:56:21;101569.81;;;26.50;55.79
71735;BME280;59577;52.122;5.406;2022-08-19T09:58:49;101570.53;;;27.01;57.63
71735;BME280;59577;52.122;5.406;2022-08-19T10:01:23;101579.16;;;27.73;53.13
71735;BME280;59577;52.122;5.406;2022-08-19T10:03:51;101576.69;;;27.98;52.00
71735;BME280;59577;52.122;5.406;2022-08-19T10:06:20;101563.16;;;28.09;51.30
71735;BME280;59577;52.122;5.406;2022-08-19T10:09:11;101569.00;;;28.02;49.28
71735;BME280;59577;52.122;5.406;2022-08-19T10:11:43;101572.50;;;27.71;50.78
71735;BME280;59577;52.122;5.406;2022-08-19T10:14:19;101576.63;;;27.66;50.80
71735;BME280;59577;52.122;5.406;2022-08-19T10:16:49;101575.78;;;27.34;51.87
71735;BME280;59577;52.122;5.406;2022-08-19T10:19:18;101569.28;;;27.15;52.79
71735;BME280;59577;52.122;5.406;2022-08-19T10:21:52;101567.50;;;27.44;52.47
71735;BME280;59577;52.122;5.406;2022-08-19T10:24:19;101565.78;;;27.59;51.09
71735;BME280;59577;52.122;5.406;2022-08-19T10:26:47;101565.91;;;27.55;51.35
71735;BME280;59577;52.122;5.406;2022-08-19T10:29:24;101562.56;;;27.26;51.88
71735;BME280;59577;52.122;5.406;2022-08-19T10:32:00;101563.34;;;27.26;51.65
71735;BME280;59577;52.122;5.406;2022-08-19T10:34:29;101562.28;;;27.11;51.37
71735;BME280;59577;52.122;5.406;2022-08-19T10:36:57;101562.88;;;26.93;53.00
71735;BME280;59577;52.122;5.406;2022-08-19T10:39:27;101555.66;;;26.95;54.31
71735;BME280;59577;52.122;5.406;2022-08-19T10:41:56;101567.50;;;27.09;53.61
71735;BME280;59577;52.122;5.406;2022-08-19T10:44:23;101554.69;;;27.11;53.21
71735;BME280;59577;52.122;5.406;2022-08-19T10:46:57;101552.00;;;27.33;52.22
71735;BME280;59577;52.122;5.406;2022-08-19T10:49:25;101546.88;;;27.76;53.08
71735;BME280;59577;52.122;5.406;2022-08-19T10:51:55;101553.81;;;27.93;50.79
71735;BME280;59577;52.122;5.406;2022-08-19T10:54:47;101558.88;;;28.17;50.72
71735;BME280;59577;52.122;5.406;2022-08-19T10:57:34;101550.47;;;27.86;49.92
71735;BME280;59577;52.122;5.406;2022-08-19T11:00:21;101549.34;;;27.52;51.14
71735;BME280;59577;52.122;5.406;2022-08-19T11:02:49;101548.88;;;27.31;52.54
71735;BME280;59577;52.122;5.406;2022-08-19T11:05:17;101546.63;;;27.61;53.68
71735;BME280;59577;52.122;5.406;2022-08-19T11:07:44;101544.59;;;27.84;51.21
71735;BME280;59577;52.122;5.406;2022-08-19T11:10:13;101540.34;;;27.48;52.51
71735;BME280;59577;52.122;5.406;2022-08-19T11:12:46;101545.22;;;27.56;52.08
71735;BME280;59577;52.122;5.406;2022-08-19T11:15:13;101549.06;;;27.37;52.31
71735;BME280;59577;52.122;5.406;2022-08-19T11:17:40;101542.94;;;27.07;52.86
71735;BME280;59577;52.122;5.406;2022-08-19T11:20:08;101539.41;;;26.94;54.47
71735;BME280;59577;52.122;5.406;2022-08-19T11:22:35;101540.44;;;26.87;54.62
71735;BME280;59577;52.122;5.406;2022-08-19T11:25:08;101532.97;;;26.97;54.08
71735;BME280;59577;52.122;5.406;2022-08-19T11:27:40;101532.06;;;27.35;54.09
71735;BME280;59577;52.122;5.406;2022-08-19T11:30:09;101534.78;;;27.70;53.73
71735;BME280;59577;52.122;5.406;2022-08-19T11:32:39;101530.31;;;27.94;53.16
71735;BME280;59577;52.122;5.406;2022-08-19T11:35:08;101522.78;;;27.82;52.72
71735;BME280;59577;52.122;5.406;2022-08-19T11:37:37;101523.59;;;27.61;53.28
71735;BME280;59577;52.122;5.406;2022-08-19T11:40:05;101519.34;;;27.47;52.51
71735;BME280;59577;52.122;5.406;2022-08-19T11:42:32;101515.16;;;27.73;52.47
71735;BME280;59577;52.122;5.406;2022-08-19T11:45:17;101518.25;;;27.98;53.28
71735;BME280;59577;52.122;5.406;2022-08-19T11:47:44;101521.44;;;27.87;53.92
71735;BME280;59577;52.122;5.406;2022-08-19T11:50:10;101523.13;;;27.84;54.39
71735;BME280;59577;52.122;5.406;2022-08-19T11:52:37;101524.69;;;28.17;53.46
71735;BME280;59577;52.122;5.406;2022-08-19T11:55:04;101525.78;;;28.19;52.18
71735;BME280;59577;52.122;5.406;2022-08-19T11:57:31;101515.47;;;28.38;52.41
71735;BME280;59577;52.122;5.406;2022-08-19T11:59:58;101533.25;;;28.41;52.02
71735;BME280;59577;52.122;5.406;2022-08-19T12:02:24;101523.19;;;27.93;51.73
71735;BME280;59577;52.122;5.406;2022-08-19T12:04:51;101523.38;;;27.99;53.25
71735;BME280;59577;52.122;5.406;2022-08-19T12:07:18;101524.84;;;27.91;51.97
71735;BME280;59577;52.122;5.406;2022-08-19T12:09:44;101519.13;;;27.63;52.78
71735;BME280;59577;52.122;5.406;2022-08-19T12:12:14;101523.59;;;27.38;54.82
71735;BME280;59577;52.122;5.406;2022-08-19T12:14:41;101526.72;;;27.06;54.01
71735;BME280;59577;52.122;5.406;2022-08-19T12:17:07;101522.63;;;26.97;55.90
71735;BME280;59577;52.122;5.406;2022-08-19T12:19:36;101532.00;;;26.91;55.64
71735;BME280;59577;52.122;5.406;2022-08-19T12:22:03;101536.13;;;26.73;56.01
71735;BME280;59577;52.122;5.406;2022-08-19T12:24:32;101532.34;;;26.54;57.08
71735;BME280;59577;52.122;5.406;2022-08-19T12:26:59;101526.25;;;26.59;56.73
71735;BME280;59577;52.122;5.406;2022-08-19T12:29:29;101537.94;;;26.41;57.49
71735;BME280;59577;52.122;5.406;2022-08-19T12:31:57;101527.19;;;26.31;56.97
71735;BME280;59577;52.122;5.406;2022-08-19T12:34:30;101535.50;;;26.18;57.58
71735;BME280;59577;52.122;5.406;2022-08-19T12:36:58;101539.38;;;25.95;58.51
71735;BME280;59577;52.122;5.406;2022-08-19T12:39:25;101532.88;;;25.85;59.66
71735;BME280;59577;52.122;5.406;2022-08-19T12:41:52;101537.88;;;25.77;59.12
71735;BME280;59577;52.122;5.406;2022-08-19T12:44:22;101538.06;;;25.70;59.75
71735;BME280;59577;52.122;5.406;2022-08-19T12:46:57;101537.44;;;25.79;59.87
71735;BME280;59577;52.122;5.406;2022-08-19T12:49:23;101533.81;;;25.95;60.22
71735;BME280;59577;52.122;5.406;2022-08-19T12:52:11;101531.06;;;26.33;59.71
71735;BME280;59577;52.122;5.406;2022-08-19T12:54:42;101525.69;;;26.77;59.26
71735;BME280;59577;52.122;5.406;2022-08-19T12:57:10;101519.19;;;26.93;59.18
71735;BME280;59577;52.122;5.406;2022-08-19T12:59:37;101520.91;;;26.91;58.74
71735;BME280;59577;52.122;5.406;2022-08-19T13:02:05;101513.91;;;26.73;58.35
71735;BME280;59577;52.122;5.406;2022-08-19T13:04:33;101510.38;;;26.73;59.00
71735;BME280;59577;52.122;5.406;2022-08-19T13:07:07;101521.84;;;26.62;59.22
71735;BME280;59577;52.122;5.406;2022-08-19T13:09:35;101509.63;;;26.46;59.86